Knoxville, TN (37914)

03:50 PM EST die 21o February, anno 2018 (GMT -0500)
Holston Hills | | Change Station

Elev 1070 ft 36.00 °N, 83.84 °W | Updated 48 seconds ago

Partialiter Nubila
Partialiter Nubila
81.5 °F
Feels Like 83 °F
N
2.5
Ventus Variabilis Ventus from Inter Austrum et Zephyrum
Gusts 4.9 mph

Hodie
High -- | Low -- °F
--% Chance of Precip.
Yesterday
High -- | Low -- °F
Precip. -- in
Pressio 30.26 in
Visibilitas 10.0 milia passuum
Clouds Few 5500 ft
Nubes Dispersae 7500 ft
Index Caloris 83 °F
Frigus in quo Ros apparet 63 °F
Umor 53%
Rainfall 0.09 in
Snow Depth Not available.
7:15 AM 6:22 PM
Waxing Crescent, 34% visible
METAR KTYS 211953Z 23017G22KT 10SM FEW055 SCT075 26/18 A3028 RMK AO2 SLP246 T02560183
Pressio 30.26 in
Visibilitas 10.0 milia passuum
Clouds Few 5500 ft
Nubes Dispersae 7500 ft
Index Caloris 83 °F
Frigus in quo Ros apparet 63 °F
Umor 53%
Rainfall 0.09 in
Snow Depth Not available.
7:15 AM 6:22 PM
Waxing Crescent, 34% visible
METAR KTYS 211953Z 23017G22KT 10SM FEW055 SCT075 26/18 A3028 RMK AO2 SLP246 T02560183

Get Severe Weather Alerts

Thanks for signing up!

Be on the lookout for a verification email in your inbox.

You'll start receiving the daily forecast at 6 AM.

×

10-Day Weather Forecast

Almanac

Astronomy

Feb. 21, 2018 Rise Set
Actual Time
Civil Twilight
Nautical Twilight
Astronomical Twilight
Moon
Length Of Visible Light
Length of Day
Tomorrow will be .
, % of the Moon is Illuminated

Today's Extremes

State Highs State Lows

Community

WunderPhotos

Category 6

Welcome to Category 6. This is the collective home for Weather Underground's featured writeups by Dr. Jeff Masters (right), Bob Henson (left), Chris Burt, and other regular contributors.

Nearby

Air Quality

  Air Quality AQ Index Pollutant
Not available.

Snow Depth

Station Depth Elevation

Earthquake Activity

City Distance Mag. Time & Date
Minimum magnitude displayed is 2.5.

Coastal Water Temperatures

Locus Calor

Stations

Nearby Weather Stations

Station Location Temp Frigus Venti Frigus in quo Ros apparet Umor Ventus Precip. Elev Renovata Type
                   

Watches & Warnings

There are currently no watches in effect.